createdAt,value
2023-01-10T00:00:35.503Z,5.60
2023-01-10T00:03:08.144Z,5.60
2023-01-10T00:05:36.344Z,5.70
2023-01-10T00:08:04.118Z,5.60
2023-01-10T00:10:31.626Z,5.50
2023-01-10T00:13:17.091Z,5.50
2023-01-10T00:15:44.248Z,5.50
2023-01-10T00:18:11.316Z,5.50
2023-01-10T00:20:38.423Z,5.50
2023-01-10T00:23:05.408Z,5.50
2023-01-10T00:25:34.246Z,5.50
2023-01-10T00:28:06.816Z,5.40
2023-01-10T00:30:35.158Z,5.40
2023-01-10T00:33:02.911Z,5.40
2023-01-10T00:35:29.592Z,5.40
2023-01-10T00:38:01.340Z,5.40
2023-01-10T00:40:28.108Z,5.50
2023-01-10T00:43:13.481Z,5.50
2023-01-10T00:45:40.431Z,5.50
2023-01-10T00:48:07.148Z,5.50
2023-01-10T00:50:33.809Z,5.60
2023-01-10T00:53:00.538Z,5.60
2023-01-10T00:55:28.451Z,5.60
2023-01-10T00:57:55.232Z,5.60
2023-01-10T01:00:21.966Z,5.70
2023-01-10T01:02:50.311Z,5.70
2023-01-10T01:05:17.779Z,5.70
2023-01-10T01:07:48.090Z,5.70
2023-01-10T01:10:27.672Z,5.60
2023-01-10T01:12:57.700Z,5.60
2023-01-10T01:15:25.641Z,5.60
2023-01-10T01:17:52.745Z,5.60
2023-01-10T01:20:20.882Z,5.60
2023-01-10T01:22:47.829Z,5.60
2023-01-10T01:25:14.787Z,5.60
2023-01-10T01:27:41.451Z,5.60
2023-01-10T01:30:11.736Z,5.70
2023-01-10T01:32:38.743Z,5.70
2023-01-10T01:35:06.657Z,5.70
2023-01-10T01:37:36.494Z,5.70
2023-01-10T01:40:04.164Z,5.70
2023-01-10T01:42:34.241Z,5.70
2023-01-10T01:45:09.972Z,5.70
2023-01-10T01:47:45.127Z,5.70
2023-01-10T01:50:22.812Z,5.70
2023-01-10T01:52:52.922Z,5.70
2023-01-10T01:55:19.719Z,5.70
2023-01-10T01:57:48.306Z,5.70
2023-01-10T02:00:15.300Z,5.80
2023-01-10T02:03:01.725Z,5.70
2023-01-10T02:05:32.045Z,5.80
2023-01-10T02:08:02.165Z,5.80
2023-01-10T02:10:43.677Z,5.80
2023-01-10T02:13:14.921Z,5.80
2023-01-10T02:15:42.078Z,5.80
2023-01-10T02:18:09.326Z,5.80
2023-01-10T02:20:51.128Z,5.80
2023-01-10T02:23:17.695Z,5.80
2023-01-10T02:26:27.033Z,5.80
2023-01-10T02:29:23.241Z,5.80
2023-01-10T02:32:05.366Z,5.90
2023-01-10T02:34:57.353Z,5.80
2023-01-10T02:37:37.097Z,5.80
2023-01-10T02:40:06.554Z,5.80
2023-01-10T02:42:39.179Z,5.80
2023-01-10T02:45:22.793Z,5.80
2023-01-10T02:47:49.446Z,5.80
2023-01-10T02:50:30.415Z,5.80
2023-01-10T02:53:06.789Z,5.80
2023-01-10T02:56:11.050Z,5.80
2023-01-10T02:58:58.834Z,5.80
2023-01-10T03:02:02.271Z,5.80
2023-01-10T03:04:55.029Z,5.70
2023-01-10T03:07:27.964Z,5.70
2023-01-10T03:10:14.594Z,5.70
2023-01-10T03:13:05.899Z,5.70
2023-01-10T03:15:36.875Z,5.70
2023-01-10T03:18:09.130Z,5.70
2023-01-10T03:20:37.307Z,5.70
2023-01-10T03:23:06.899Z,5.70
2023-01-10T03:25:37.716Z,5.60
2023-01-10T03:28:23.517Z,5.60
2023-01-10T03:31:06.780Z,5.60
2023-01-10T03:33:34.577Z,5.60
2023-01-10T03:36:22.222Z,5.70
2023-01-10T03:39:01.597Z,5.70
2023-01-10T03:42:22.596Z,5.60
2023-01-10T03:45:13.509Z,5.60
2023-01-10T03:47:46.430Z,5.50
2023-01-10T03:50:20.894Z,5.60
2023-01-10T03:52:47.753Z,5.60
2023-01-10T03:55:19.173Z,5.50
2023-01-10T03:57:46.087Z,5.50
2023-01-10T04:00:14.885Z,5.50
2023-01-10T04:02:42.217Z,5.40
2023-01-10T04:05:09.885Z,5.40
2023-01-10T04:07:36.888Z,5.30
2023-01-10T04:10:08.041Z,5.30
2023-01-10T04:12:34.721Z,5.30
2023-01-10T04:15:01.507Z,5.20
2023-01-10T04:17:28.435Z,5.20
2023-01-10T04:19:55.137Z,5.10
2023-01-10T04:22:22.063Z,5.10
2023-01-10T04:24:51.158Z,5.10
2023-01-10T04:27:19.012Z,5.00
2023-01-10T04:29:46.248Z,5.00
2023-01-10T04:32:13.345Z,5.00
2023-01-10T04:34:39.999Z,5.10
2023-01-10T04:37:06.678Z,5.10
2023-01-10T04:39:33.406Z,5.10
2023-01-10T04:42:00.108Z,5.10
2023-01-10T04:44:26.960Z,5.10
2023-01-10T04:46:53.651Z,5.10
2023-01-10T04:49:20.329Z,5.10
2023-01-10T04:51:47.040Z,5.10
2023-01-10T04:54:13.707Z,5.10
2023-01-10T04:56:40.367Z,5.10
2023-01-10T04:59:09.358Z,5.20
2023-01-10T05:01:38.917Z,5.20
2023-01-10T05:04:06.463Z,5.10
2023-01-10T05:06:33.353Z,5.20
2023-01-10T05:09:00.081Z,5.20
2023-01-10T05:11:26.834Z,5.20
2023-01-10T05:13:53.525Z,5.20
2023-01-10T05:16:20.427Z,5.20
2023-01-10T05:18:47.188Z,5.20
2023-01-10T05:21:14.337Z,5.20
2023-01-10T05:23:41.224Z,5.20
2023-01-10T05:26:11.318Z,5.20
2023-01-10T05:28:39.064Z,5.20
2023-01-10T05:31:07.616Z,5.20
2023-01-10T05:33:34.434Z,5.20
2023-01-10T05:36:02.817Z,5.20
2023-01-10T05:38:30.427Z,5.30
2023-01-10T05:40:59.125Z,5.30
2023-01-10T05:43:26.794Z,5.40
2023-01-10T05:45:53.578Z,5.30
2023-01-10T05:48:20.683Z,5.30
2023-01-10T05:50:50.025Z,5.30
2023-01-10T05:53:17.195Z,5.40
2023-01-10T05:55:44.496Z,5.30
2023-01-10T05:58:13.471Z,5.30
2023-01-10T06:00:40.597Z,5.30
2023-01-10T06:03:08.856Z,5.30
2023-01-10T06:05:35.593Z,5.30
2023-01-10T06:08:02.276Z,5.40
2023-01-10T06:10:28.992Z,5.30
2023-01-10T06:12:55.802Z,5.30
2023-01-10T06:15:22.939Z,5.30
2023-01-10T06:17:49.732Z,5.30
2023-01-10T06:20:17.010Z,5.30
2023-01-10T06:22:44.034Z,5.30
2023-01-10T06:25:12.362Z,5.40
2023-01-10T06:27:43.228Z,5.40
2023-01-10T06:30:12.253Z,5.40
2023-01-10T06:32:39.284Z,5.40
2023-01-10T06:35:06.196Z,5.40
2023-01-10T06:37:33.568Z,5.40
2023-01-10T06:40:00.392Z,5.40
2023-01-10T06:42:27.114Z,5.40
2023-01-10T06:44:53.782Z,5.40
2023-01-10T06:47:21.232Z,5.50
2023-01-10T06:49:47.920Z,5.50
2023-01-10T06:52:14.898Z,5.50
2023-01-10T06:54:41.668Z,5.40
2023-01-10T06:57:08.863Z,5.40
2023-01-10T06:59:35.588Z,5.50
2023-01-10T07:02:02.340Z,5.50
2023-01-10T07:04:29.141Z,5.40
2023-01-10T07:06:55.863Z,5.40
2023-01-10T07:09:22.549Z,5.40
2023-01-10T07:11:49.220Z,5.40
2023-01-10T07:14:15.892Z,5.50
2023-01-10T07:16:42.563Z,5.40
2023-01-10T07:19:09.238Z,5.40
2023-01-10T07:21:35.900Z,5.30
2023-01-10T07:24:03.022Z,5.30
2023-01-10T07:26:29.950Z,5.30
2023-01-10T07:28:57.237Z,5.30
2023-01-10T07:31:24.450Z,5.40
2023-01-10T07:33:52.636Z,5.40
2023-01-10T07:36:20.427Z,5.40
2023-01-10T07:38:47.244Z,5.30
2023-01-10T07:41:13.916Z,5.40
2023-01-10T07:43:40.656Z,5.40
2023-01-10T07:46:09.554Z,5.40
2023-01-10T07:48:36.885Z,5.40
2023-01-10T07:51:04.247Z,5.40
2023-01-10T07:53:31.131Z,5.40
2023-01-10T07:56:02.497Z,5.40
2023-01-10T07:58:29.305Z,5.50
2023-01-10T08:01:00.792Z,5.50
2023-01-10T08:03:29.740Z,5.50
2023-01-10T08:06:04.470Z,5.50
2023-01-10T08:08:31.797Z,5.50
2023-01-10T08:10:59.673Z,5.40
2023-01-10T08:13:26.814Z,5.50
2023-01-10T08:15:53.637Z,5.60
2023-01-10T08:18:21.726Z,5.70
2023-01-10T08:20:53.203Z,5.70
2023-01-10T08:23:20.560Z,5.80
2023-01-10T08:25:47.494Z,5.80
2023-01-10T08:28:14.341Z,5.80
2023-01-10T08:30:41.227Z,5.80
2023-01-10T08:33:08.823Z,5.90
2023-01-10T08:35:43.275Z,5.80
2023-01-10T08:38:11.269Z,5.90
2023-01-10T08:40:38.669Z,5.90
2023-01-10T08:43:10.864Z,5.90
2023-01-10T08:45:38.831Z,5.80
2023-01-10T08:48:06.687Z,5.90
2023-01-10T08:50:33.414Z,5.90
2023-01-10T08:53:01.042Z,5.90
2023-01-10T08:55:28.787Z,5.90
2023-01-10T08:57:55.577Z,5.90
2023-01-10T09:00:22.944Z,6.00
2023-01-10T09:02:50.291Z,6.00
2023-01-10T09:05:32.492Z,6.10
2023-01-10T09:08:01.812Z,6.10
2023-01-10T09:10:29.718Z,6.20
2023-01-10T09:13:01.216Z,6.20
2023-01-10T09:15:31.043Z,6.30
2023-01-10T09:18:00.713Z,6.20
2023-01-10T09:20:28.958Z,6.30
2023-01-10T09:22:57.190Z,6.30
2023-01-10T09:25:24.786Z,6.30
2023-01-10T09:27:59.234Z,6.40
2023-01-10T09:30:27.525Z,6.40
2023-01-10T09:32:55.725Z,6.40
2023-01-10T09:35:23.117Z,6.50
2023-01-10T09:37:50.219Z,6.50
2023-01-10T09:40:20.664Z,6.50
2023-01-10T09:42:59.440Z,6.50
2023-01-10T09:45:51.876Z,6.50
2023-01-10T09:48:31.770Z,6.40
2023-01-10T09:51:13.767Z,6.50
2023-01-10T09:53:44.606Z,6.50
2023-01-10T09:56:15.616Z,6.50
2023-01-10T09:58:44.487Z,6.50
2023-01-10T10:01:21.730Z,6.50
2023-01-10T10:04:04.065Z,6.50
2023-01-10T10:06:31.013Z,6.60
2023-01-10T10:08:58.139Z,6.70
2023-01-10T10:11:27.527Z,6.60
2023-01-10T10:14:07.282Z,6.60
2023-01-10T10:16:54.428Z,6.60
2023-01-10T10:20:03.983Z,6.60
2023-01-10T10:22:55.190Z,6.70
2023-01-10T10:25:40.737Z,6.80
2023-01-10T10:28:16.323Z,6.90
2023-01-10T10:30:45.945Z,6.90
2023-01-10T10:33:48.060Z,6.90
2023-01-10T10:36:23.756Z,6.70
2023-01-10T10:38:51.644Z,6.80
2023-01-10T10:41:34.504Z,6.80
2023-01-10T10:44:09.260Z,6.90
2023-01-10T10:46:35.991Z,6.90
2023-01-10T10:49:19.766Z,6.90
2023-01-10T10:51:52.464Z,7.00
2023-01-10T10:54:19.544Z,7.00
2023-01-10T10:56:47.122Z,7.00
2023-01-10T10:59:19.059Z,6.90
2023-01-10T11:01:49.685Z,6.90
2023-01-10T11:04:21.174Z,6.90
2023-01-10T11:06:49.265Z,6.90
2023-01-10T11:09:44.970Z,6.90
2023-01-10T11:12:17.280Z,6.80
2023-01-10T11:14:50.088Z,6.80
2023-01-10T11:17:33.746Z,6.80
2023-01-10T11:20:20.661Z,6.90
2023-01-10T11:22:50.862Z,6.90
2023-01-10T11:25:23.816Z,6.80
2023-01-10T11:27:54.203Z,6.80
2023-01-10T11:30:26.002Z,6.70
2023-01-10T11:33:00.293Z,6.80
2023-01-10T11:35:38.946Z,6.80
2023-01-10T11:38:15.638Z,6.90
2023-01-10T11:40:55.386Z,7.10
2023-01-10T11:43:27.088Z,7.10
2023-01-10T11:46:02.277Z,7.20
2023-01-10T11:49:18.684Z,7.20
2023-01-10T11:51:55.620Z,7.30
2023-01-10T11:54:27.756Z,7.40
2023-01-10T11:57:03.965Z,7.50
2023-01-10T11:59:30.845Z,7.50
2023-01-10T12:02:23.134Z,7.40
2023-01-10T12:04:52.105Z,7.60
2023-01-10T12:07:22.467Z,7.60
2023-01-10T12:09:58.102Z,7.60
2023-01-10T12:12:27.739Z,7.60
2023-01-10T12:14:57.332Z,7.60
2023-01-10T12:17:32.651Z,7.50
2023-01-10T12:20:02.019Z,7.50
2023-01-10T12:22:36.912Z,7.40
2023-01-10T12:25:10.950Z,7.40
2023-01-10T12:27:37.643Z,7.50
2023-01-10T12:30:16.047Z,7.40
2023-01-10T12:32:51.909Z,7.50
2023-01-10T12:35:28.183Z,7.60
2023-01-10T12:38:08.665Z,7.60
2023-01-10T12:40:47.527Z,7.60
2023-01-10T12:43:37.597Z,7.70
2023-01-10T12:46:29.712Z,7.80
2023-01-10T12:49:14.459Z,8.00
2023-01-10T12:51:42.953Z,8.20
2023-01-10T12:54:18.041Z,8.10
2023-01-10T12:56:46.600Z,8.10
2023-01-10T12:59:38.340Z,7.90
2023-01-10T13:02:13.404Z,7.90
2023-01-10T13:04:41.471Z,7.80
2023-01-10T13:07:12.681Z,7.90
2023-01-10T13:09:42.360Z,7.80
2023-01-10T13:12:24.194Z,7.80
2023-01-10T13:15:21.568Z,7.80
2023-01-10T13:17:53.759Z,7.60
2023-01-10T13:20:23.263Z,7.50
2023-01-10T13:23:23.637Z,7.40
2023-01-10T13:26:02.701Z,7.40
2023-01-10T13:28:32.272Z,7.30
2023-01-10T13:31:20.634Z,7.30
2023-01-10T13:33:52.636Z,7.20
2023-01-10T13:36:23.203Z,7.30
2023-01-10T13:38:56.079Z,7.30
2023-01-10T13:41:43.324Z,7.30
2023-01-10T13:44:14.921Z,7.30
2023-01-10T13:46:45.935Z,7.30
2023-01-10T13:49:12.715Z,7.30
2023-01-10T13:52:17.967Z,7.30
2023-01-10T13:55:00.318Z,7.40
2023-01-10T13:57:50.135Z,7.40
2023-01-10T14:01:10.268Z,7.50
2023-01-10T14:04:00.439Z,7.60
2023-01-10T14:06:29.975Z,7.60
2023-01-10T14:09:01.366Z,7.70
2023-01-10T14:11:50.849Z,7.70
2023-01-10T14:14:27.530Z,7.70
2023-01-10T14:17:10.896Z,7.70
2023-01-10T14:19:39.448Z,7.70
2023-01-10T14:22:06.923Z,7.60
2023-01-10T14:24:45.243Z,7.70
2023-01-10T14:27:17.232Z,7.70
2023-01-10T14:29:54.207Z,7.70
2023-01-10T14:32:32.475Z,7.70
2023-01-10T14:35:03.226Z,7.60
2023-01-10T14:37:37.530Z,7.60
2023-01-10T14:40:10.688Z,7.70
2023-01-10T14:42:37.961Z,7.60
2023-01-10T14:45:48.060Z,7.60
2023-01-10T14:48:46.490Z,7.50
2023-01-10T14:51:13.635Z,7.40
2023-01-10T14:53:41.450Z,7.40
2023-01-10T14:56:23.212Z,7.30
2023-01-10T14:58:50.499Z,7.30
2023-01-10T15:01:27.195Z,7.30
2023-01-10T15:03:57.246Z,7.20
2023-01-10T15:06:26.067Z,7.20
2023-01-10T15:09:00.759Z,7.20
2023-01-10T15:11:30.578Z,7.10
2023-01-10T15:14:03.654Z,7.00
2023-01-10T15:16:32.103Z,7.10
2023-01-10T15:18:59.809Z,7.00
2023-01-10T15:21:27.671Z,7.00
2023-01-10T15:23:54.975Z,7.00
2023-01-10T15:26:29.758Z,6.90
2023-01-10T15:29:13.457Z,6.90
2023-01-10T15:31:42.310Z,6.90
2023-01-10T15:34:15.261Z,6.90
2023-01-10T15:36:51.807Z,6.90
2023-01-10T15:39:31.919Z,6.80
2023-01-10T15:42:02.767Z,6.70
2023-01-10T15:44:52.806Z,6.70
2023-01-10T15:47:49.917Z,6.60
2023-01-10T15:50:23.875Z,6.60
2023-01-10T15:52:55.229Z,6.60
2023-01-10T15:55:47.820Z,6.50
2023-01-10T15:58:35.293Z,6.50
2023-01-10T16:01:04.970Z,6.50
2023-01-10T16:03:38.507Z,6.40
2023-01-10T16:06:12.778Z,6.40
2023-01-10T16:08:40.267Z,6.40
2023-01-10T16:11:17.782Z,6.30
2023-01-10T16:13:45.084Z,6.40
2023-01-10T16:16:18.675Z,6.40
2023-01-10T16:18:46.345Z,6.40
2023-01-10T16:21:14.484Z,6.30
2023-01-10T16:23:46.109Z,6.30
2023-01-10T16:26:14.901Z,6.30
2023-01-10T16:28:42.330Z,6.30
2023-01-10T16:31:12.394Z,6.30
2023-01-10T16:33:41.574Z,6.20
2023-01-10T16:36:18.719Z,6.20
2023-01-10T16:38:46.329Z,6.30
2023-01-10T16:41:33.198Z,6.20
2023-01-10T16:44:01.022Z,6.10
2023-01-10T16:46:28.430Z,6.10
2023-01-10T16:48:55.794Z,6.10
2023-01-10T16:51:24.548Z,6.00
2023-01-10T16:53:52.562Z,6.00
2023-01-10T16:56:22.813Z,6.00
2023-01-10T16:58:51.422Z,6.00
2023-01-10T17:01:20.843Z,5.90
2023-01-10T17:03:48.320Z,5.90
2023-01-10T17:06:16.162Z,6.00
2023-01-10T17:08:44.944Z,6.00
2023-01-10T17:11:22.327Z,5.90
2023-01-10T17:13:49.212Z,6.00
2023-01-10T17:16:19.326Z,6.00
2023-01-10T17:18:46.844Z,6.00
2023-01-10T17:21:16.643Z,5.90
2023-01-10T17:23:44.496Z,6.00
2023-01-10T17:26:13.025Z,6.00
2023-01-10T17:28:41.044Z,6.00
2023-01-10T17:31:08.852Z,5.90
2023-01-10T17:33:35.964Z,5.90
2023-01-10T17:36:03.326Z,5.90
2023-01-10T17:38:30.843Z,6.00
2023-01-10T17:41:02.010Z,6.00
2023-01-10T17:43:29.822Z,6.00
2023-01-10T17:45:58.748Z,6.10
2023-01-10T17:48:25.678Z,6.00
2023-01-10T17:50:57.433Z,6.00
2023-01-10T17:53:24.414Z,6.10
2023-01-10T17:55:51.731Z,6.00
2023-01-10T17:58:20.072Z,6.00
2023-01-10T18:00:47.126Z,6.00
2023-01-10T18:03:14.452Z,6.00
2023-01-10T18:05:52.557Z,6.00
2023-01-10T18:08:19.912Z,6.00
2023-01-10T18:10:47.274Z,6.10
2023-01-10T18:13:15.799Z,6.10
2023-01-10T18:15:48.147Z,6.20
2023-01-10T18:18:15.705Z,6.20
2023-01-10T18:20:44.082Z,6.10
2023-01-10T18:23:22.578Z,6.10
2023-01-10T18:25:53.305Z,6.10
2023-01-10T18:28:31.932Z,6.10
2023-01-10T18:31:17.496Z,6.10
2023-01-10T18:33:45.581Z,6.00
2023-01-10T18:36:24.137Z,6.00
2023-01-10T18:38:51.864Z,6.10
2023-01-10T18:41:21.127Z,6.00
2023-01-10T18:43:48.276Z,6.10
2023-01-10T18:46:20.711Z,6.10
2023-01-10T18:48:50.881Z,6.10
2023-01-10T18:51:19.030Z,6.10
2023-01-10T18:53:47.330Z,6.20
2023-01-10T18:56:14.651Z,6.10
2023-01-10T18:58:42.858Z,6.10
2023-01-10T19:01:20.543Z,6.10
2023-01-10T19:03:47.358Z,6.10
2023-01-10T19:06:16.616Z,6.20
2023-01-10T19:08:45.218Z,6.10
2023-01-10T19:11:15.436Z,6.10
2023-01-10T19:13:44.143Z,6.10
2023-01-10T19:16:21.330Z,6.10
2023-01-10T19:18:56.156Z,6.10
2023-01-10T19:21:24.719Z,6.10
2023-01-10T19:23:55.654Z,6.10
2023-01-10T19:26:23.362Z,6.20
2023-01-10T19:28:50.480Z,6.20
2023-01-10T19:31:19.564Z,6.20
2023-01-10T19:33:48.013Z,6.10
2023-01-10T19:36:15.193Z,6.10
2023-01-10T19:38:41.916Z,6.20
2023-01-10T19:41:09.162Z,6.20
2023-01-10T19:43:36.023Z,6.20
2023-01-10T19:46:07.873Z,6.20
2023-01-10T19:48:37.911Z,6.20
2023-01-10T19:51:13.108Z,6.20
2023-01-10T19:53:42.174Z,6.20
2023-01-10T19:56:10.329Z,6.20
2023-01-10T19:58:38.415Z,6.20
2023-01-10T20:01:08.151Z,6.20
2023-01-10T20:03:35.112Z,6.20
2023-01-10T20:06:03.781Z,6.20
2023-01-10T20:08:31.119Z,6.20
2023-01-10T20:11:05.440Z,6.20
2023-01-10T20:13:37.517Z,6.20
2023-01-10T20:16:05.719Z,6.20
2023-01-10T20:18:32.669Z,6.20
2023-01-10T20:21:02.925Z,6.30
2023-01-10T20:23:31.332Z,6.30
2023-01-10T20:26:02.324Z,6.30
2023-01-10T20:28:30.326Z,6.20
2023-01-10T20:30:57.218Z,6.20
2023-01-10T20:33:26.637Z,6.20
2023-01-10T20:36:07.778Z,6.20
2023-01-10T20:38:36.626Z,6.30
2023-01-10T20:41:12.367Z,6.30
2023-01-10T20:43:40.009Z,6.20
2023-01-10T20:46:12.447Z,6.20
2023-01-10T20:48:40.295Z,6.30
2023-01-10T20:51:08.825Z,6.30
2023-01-10T20:53:35.586Z,6.30
2023-01-10T20:56:07.629Z,6.30
2023-01-10T20:58:35.029Z,6.30
2023-01-10T21:01:02.246Z,6.30
2023-01-10T21:03:29.381Z,6.30
2023-01-10T21:05:57.515Z,6.40
2023-01-10T21:08:25.237Z,6.30
2023-01-10T21:10:52.775Z,6.40
2023-01-10T21:13:19.537Z,6.30
2023-01-10T21:15:47.469Z,6.40
2023-01-10T21:18:16.059Z,6.30
2023-01-10T21:20:44.011Z,6.30
2023-01-10T21:23:11.639Z,6.30
2023-01-10T21:25:38.780Z,6.40
2023-01-10T21:28:09.670Z,6.40
2023-01-10T21:30:37.326Z,6.40
2023-01-10T21:33:04.634Z,6.40
2023-01-10T21:35:31.737Z,6.40
2023-01-10T21:37:58.650Z,6.40
2023-01-10T21:40:26.937Z,6.50
2023-01-10T21:42:54.178Z,6.40
2023-01-10T21:45:21.784Z,6.50
2023-01-10T21:47:51.911Z,6.40
2023-01-10T21:50:21.495Z,6.50
2023-01-10T21:52:49.124Z,6.50
2023-01-10T21:55:16.597Z,6.40
2023-01-10T21:57:43.477Z,6.50
2023-01-10T22:00:11.057Z,6.50
2023-01-10T22:02:40.828Z,6.50
2023-01-10T22:05:08.617Z,6.50
2023-01-10T22:07:35.351Z,6.50
2023-01-10T22:10:02.571Z,6.40
2023-01-10T22:12:30.559Z,6.50
2023-01-10T22:14:57.714Z,6.50
2023-01-10T22:17:24.633Z,6.50
2023-01-10T22:19:51.760Z,6.50
2023-01-10T22:22:18.903Z,6.60
2023-01-10T22:24:47.848Z,6.60
2023-01-10T22:27:15.884Z,6.50
2023-01-10T22:29:43.525Z,6.50
2023-01-10T22:32:10.491Z,6.50
2023-01-10T22:34:37.600Z,6.60
2023-01-10T22:37:04.385Z,6.60
2023-01-10T22:39:31.172Z,6.60
2023-01-10T22:41:57.894Z,6.60
2023-01-10T22:44:26.596Z,6.60
2023-01-10T22:46:55.371Z,6.60
2023-01-10T22:49:23.012Z,6.60
2023-01-10T22:51:50.409Z,6.50
2023-01-10T22:54:17.792Z,6.50
2023-01-10T22:56:46.390Z,6.60
2023-01-10T22:59:13.977Z,6.60
2023-01-10T23:01:41.123Z,6.60
2023-01-10T23:04:08.203Z,6.50
2023-01-10T23:06:35.050Z,6.50
2023-01-10T23:09:01.896Z,6.60
2023-01-10T23:11:28.626Z,6.60
2023-01-10T23:13:55.311Z,6.60
2023-01-10T23:16:28.506Z,6.60
2023-01-10T23:18:59.525Z,6.60
2023-01-10T23:21:26.940Z,6.60
2023-01-10T23:23:54.959Z,6.60
2023-01-10T23:26:22.455Z,6.60
2023-01-10T23:28:50.820Z,6.70
2023-01-10T23:31:23.892Z,6.60
2023-01-10T23:33:51.513Z,6.60
2023-01-10T23:36:19.272Z,6.60
2023-01-10T23:38:46.200Z,6.60
2023-01-10T23:41:13.419Z,6.60
2023-01-10T23:43:40.327Z,6.60
2023-01-10T23:46:07.616Z,6.60
2023-01-10T23:48:34.933Z,6.60
2023-01-10T23:51:01.651Z,6.60
2023-01-10T23:53:28.369Z,6.60
2023-01-10T23:55:55.113Z,6.60
2023-01-10T23:58:21.822Z,6.60
